GEC8461 VHHH-ZSPD
Flight info
| Callsign | GEC8461 |
|---|---|
| Flight time | 2h 1m |
| Altitude | 33000 |
| Route | LEKEN V601 DOTMI/K0922S1010 A470 LJG B221 SHZ W58 BK BK82A |
| Aircraft | B77L/H-SDE1E2E3FGHIJ2J3J4J5M1RWXY/LB1D1 |
Departure
| Time | 2026-05-07 01:29 |
|---|---|
| Airport | Hong Kong International Airport (VHHH) |
Arrival
| Time | 2026-05-07 03:31 |
|---|---|
| Airport | Shanghai Pudong International Airport (ZSPD) |
| Time | Latitude | Longitude | Altitude | Speed | Heading |
|---|---|---|---|---|---|
| 2026-05-07 01:12 | 22.30209 | 113.90446 | 40 ft | 0 kts | 160° |
| 2026-05-07 01:13 | 22.30222 | 113.90441 | 39 ft | 3 kts | 156° |
| 2026-05-07 01:13 | 22.30240 | 113.90432 | 38 ft | 3 kts | 148° |
| 2026-05-07 01:14 | 22.30257 | 113.90420 | 37 ft | 3 kts | 144° |
| 2026-05-07 01:14 | 22.30271 | 113.90409 | 37 ft | 1 kts | 145° |
| 2026-05-07 01:14 | 22.30273 | 113.90408 | 36 ft | 0 kts | 145° |
| 2026-05-07 01:18 | 22.30268 | 113.90414 | 38 ft | 4 kts | 131° |
| 2026-05-07 01:18 | 22.30279 | 113.90453 | 37 ft | 7 kts | 40° |
| 2026-05-07 01:18 | 22.30310 | 113.90489 | 37 ft | 7 kts | 59° |
| 2026-05-07 01:19 | 22.30328 | 113.90534 | 39 ft | 7 kts | 68° |
| 2026-05-07 01:19 | 22.30343 | 113.90581 | 39 ft | 7 kts | 74° |
| 2026-05-07 01:19 | 22.30356 | 113.90627 | 39 ft | 7 kts | 54° |
| 2026-05-07 01:19 | 22.30401 | 113.90633 | 39 ft | 7 kts | 345° |
| 2026-05-07 01:20 | 22.30449 | 113.90617 | 39 ft | 7 kts | 340° |
| 2026-05-07 01:20 | 22.30498 | 113.90598 | 39 ft | 8 kts | 342° |
| 2026-05-07 01:20 | 22.30548 | 113.90581 | 38 ft | 8 kts | 342° |
| 2026-05-07 01:20 | 22.30598 | 113.90562 | 38 ft | 8 kts | 340° |
| 2026-05-07 01:21 | 22.30638 | 113.90531 | 38 ft | 8 kts | 299° |
| 2026-05-07 01:21 | 22.30636 | 113.90475 | 36 ft | 8 kts | 256° |
| 2026-05-07 01:21 | 22.30621 | 113.90421 | 37 ft | 8 kts | 252° |
| 2026-05-07 01:21 | 22.30604 | 113.90367 | 37 ft | 8 kts | 250° |
| 2026-05-07 01:22 | 22.30586 | 113.90313 | 37 ft | 8 kts | 251° |
| 2026-05-07 01:22 | 22.30569 | 113.90259 | 37 ft | 8 kts | 251° |
| 2026-05-07 01:22 | 22.30555 | 113.90204 | 37 ft | 8 kts | 266° |
| 2026-05-07 01:22 | 22.30586 | 113.90162 | 37 ft | 8 kts | 335° |
| 2026-05-07 01:23 | 22.30638 | 113.90140 | 37 ft | 8 kts | 340° |
| 2026-05-07 01:23 | 22.30693 | 113.90119 | 36 ft | 9 kts | 340° |
| 2026-05-07 01:23 | 22.30750 | 113.90097 | 36 ft | 9 kts | 340° |
| 2026-05-07 01:23 | 22.30809 | 113.90076 | 36 ft | 9 kts | 341° |
| 2026-05-07 01:24 | 22.30869 | 113.90054 | 36 ft | 9 kts | 341° |
| 2026-05-07 01:24 | 22.30929 | 113.90032 | 35 ft | 9 kts | 341° |
| 2026-05-07 01:24 | 22.30962 | 113.89979 | 35 ft | 9 kts | 268° |
| 2026-05-07 01:24 | 22.30944 | 113.89912 | 35 ft | 9 kts | 251° |
| 2026-05-07 01:25 | 22.30923 | 113.89846 | 36 ft | 9 kts | 250° |
| 2026-05-07 01:25 | 22.30942 | 113.89790 | 36 ft | 10 kts | 340° |
| 2026-05-07 01:25 | 22.30953 | 113.89786 | 36 ft | 0 kts | 340° |
| 2026-05-07 01:27 | 22.30955 | 113.89786 | 36 ft | 2 kts | 341° |
| 2026-05-07 01:27 | 22.30993 | 113.89773 | 35 ft | 9 kts | 338° |
| 2026-05-07 01:27 | 22.31047 | 113.89750 | 35 ft | 5 kts | 338° |
| 2026-05-07 01:27 | 22.31076 | 113.89769 | 35 ft | 6 kts | 56° |
| 2026-05-07 01:28 | 22.31087 | 113.89796 | 35 ft | 0 kts | 69° |
| 2026-05-07 01:28 | 22.31117 | 113.89886 | 35 ft | 44 kts | 71° |
| 2026-05-07 01:28 | 22.31299 | 113.90446 | 33 ft | 112 kts | 70° |
| 2026-05-07 01:28 | 22.31615 | 113.91438 | 39 ft | 164 kts | 72° |
| 2026-05-07 01:29 | 22.32016 | 113.92622 | 465 ft | 173 kts | 71° |
| 2026-05-07 01:29 | 22.32440 | 113.93909 | 816 ft | 192 kts | 72° |
| 2026-05-07 01:29 | 22.32893 | 113.95320 | 1250 ft | 205 kts | 72° |
| 2026-05-07 01:29 | 22.33357 | 113.96785 | 1917 ft | 208 kts | 73° |
| 2026-05-07 01:30 | 22.33716 | 113.98357 | 2289 ft | 228 kts | 81° |
| 2026-05-07 01:30 | 22.33960 | 114.00123 | 2690 ft | 244 kts | 83° |
| 2026-05-07 01:30 | 22.34193 | 114.01944 | 3407 ft | 248 kts | 84° |
| 2026-05-07 01:30 | 22.34429 | 114.03841 | 3880 ft | 262 kts | 88° |
| 2026-05-07 01:31 | 22.34241 | 114.05844 | 4242 ft | 279 kts | 112° |
| 2026-05-07 01:31 | 22.33096 | 114.07545 | 4858 ft | 282 kts | 146° |
| 2026-05-07 01:31 | 22.31360 | 114.08361 | 5958 ft | 267 kts | 169° |
| 2026-05-07 01:31 | 22.29546 | 114.08740 | 6693 ft | 268 kts | 171° |
| 2026-05-07 01:32 | 22.27643 | 114.08939 | 7104 ft | 282 kts | 182° |
| 2026-05-07 01:32 | 22.25719 | 114.08841 | 7871 ft | 279 kts | 185° |
| 2026-05-07 01:32 | 22.23780 | 114.08728 | 8662 ft | 280 kts | 184° |
| 2026-05-07 01:32 | 22.21799 | 114.08667 | 9234 ft | 290 kts | 183° |
| 2026-05-07 01:33 | 22.19749 | 114.08675 | 9823 ft | 298 kts | 181° |
| 2026-05-07 01:33 | 22.17682 | 114.08845 | 10432 ft | 303 kts | 167° |
| 2026-05-07 01:33 | 22.15742 | 114.09906 | 10614 ft | 330 kts | 139° |
| 2026-05-07 01:33 | 22.14338 | 114.11973 | 10782 ft | 352 kts | 119° |
| 2026-05-07 01:34 | 22.13212 | 114.14414 | 10938 ft | 374 kts | 117° |
| 2026-05-07 01:34 | 22.12049 | 114.16998 | 11274 ft | 389 kts | 117° |
| 2026-05-07 01:34 | 22.10836 | 114.19639 | 11836 ft | 397 kts | 118° |
| 2026-05-07 01:34 | 22.09578 | 114.22311 | 12470 ft | 401 kts | 118° |
| 2026-05-07 01:35 | 22.08285 | 114.24982 | 13158 ft | 400 kts | 122° |
| 2026-05-07 01:35 | 22.06559 | 114.27293 | 13627 ft | 403 kts | 143° |
| 2026-05-07 01:35 | 22.04274 | 114.29013 | 14102 ft | 403 kts | 148° |
| 2026-05-07 01:35 | 22.01945 | 114.30752 | 14609 ft | 409 kts | 146° |
| 2026-05-07 01:36 | 21.99631 | 114.32562 | 15215 ft | 411 kts | 144° |
| 2026-05-07 01:36 | 21.97594 | 114.34733 | 15600 ft | 421 kts | 126° |
| 2026-05-07 01:36 | 21.96342 | 114.37616 | 16105 ft | 429 kts | 107° |
| 2026-05-07 01:36 | 21.95948 | 114.40811 | 16694 ft | 431 kts | 89° |
| 2026-05-07 01:37 | 21.96110 | 114.44053 | 17191 ft | 436 kts | 86° |
| 2026-05-07 01:37 | 21.96304 | 114.47343 | 17684 ft | 442 kts | 87° |
| 2026-05-07 01:37 | 21.96453 | 114.50661 | 18245 ft | 446 kts | 88° |
| 2026-05-07 01:37 | 21.96468 | 114.54011 | 18727 ft | 448 kts | 96° |
| 2026-05-07 01:38 | 21.95909 | 114.57317 | 19172 ft | 450 kts | 104° |
| 2026-05-07 01:38 | 21.95137 | 114.60614 | 19628 ft | 454 kts | 105° |
| 2026-05-07 01:38 | 21.94350 | 114.63877 | 20095 ft | 458 kts | 105° |
| 2026-05-07 01:38 | 21.93571 | 114.67213 | 20569 ft | 461 kts | 104° |
| 2026-05-07 01:39 | 21.92817 | 114.70581 | 21034 ft | 464 kts | 104° |
| 2026-05-07 01:39 | 21.92081 | 114.73975 | 21498 ft | 467 kts | 103° |
| 2026-05-07 01:39 | 21.91351 | 114.77396 | 21942 ft | 471 kts | 103° |
| 2026-05-07 01:39 | 21.90616 | 114.80850 | 22385 ft | 474 kts | 103° |
| 2026-05-07 01:40 | 21.89877 | 114.84318 | 22823 ft | 477 kts | 103° |
| 2026-05-07 01:40 | 21.89127 | 114.87817 | 23246 ft | 480 kts | 103° |
| 2026-05-07 01:40 | 21.88415 | 114.91347 | 23641 ft | 484 kts | 99° |
| 2026-05-07 01:40 | 21.88221 | 114.94969 | 23967 ft | 487 kts | 88° |
| 2026-05-07 01:41 | 21.88386 | 114.98617 | 24335 ft | 489 kts | 86° |
| 2026-05-07 01:41 | 21.88612 | 115.02283 | 24698 ft | 491 kts | 86° |
| 2026-05-07 01:41 | 21.88819 | 115.05971 | 25053 ft | 494 kts | 86° |
| 2026-05-07 01:41 | 21.88981 | 115.09631 | 25404 ft | 497 kts | 87° |
| 2026-05-07 01:42 | 21.89109 | 115.13355 | 25751 ft | 499 kts | 88° |
| 2026-05-07 01:42 | 21.89219 | 115.17106 | 26108 ft | 502 kts | 88° |
| 2026-05-07 01:42 | 21.89325 | 115.20872 | 26459 ft | 505 kts | 88° |
| 2026-05-07 01:42 | 21.89435 | 115.24659 | 26813 ft | 507 kts | 88° |
| 2026-05-07 01:43 | 21.89549 | 115.28473 | 27145 ft | 510 kts | 88° |
| 2026-05-07 01:43 | 21.89661 | 115.32311 | 27487 ft | 513 kts | 88° |
| 2026-05-07 01:43 | 21.89771 | 115.36157 | 27841 ft | 515 kts | 88° |
| 2026-05-07 01:43 | 21.89880 | 115.40025 | 28179 ft | 518 kts | 88° |
| 2026-05-07 01:44 | 21.89989 | 115.43907 | 28523 ft | 520 kts | 88° |
| 2026-05-07 01:44 | 21.90098 | 115.47810 | 28859 ft | 523 kts | 88° |
| 2026-05-07 01:44 | 21.90205 | 115.51684 | 29178 ft | 525 kts | 88° |
| 2026-05-07 01:44 | 21.90315 | 115.55674 | 29471 ft | 528 kts | 88° |
| 2026-05-07 01:45 | 21.90431 | 115.59630 | 29771 ft | 530 kts | 86° |
| 2026-05-07 01:45 | 21.90734 | 115.63537 | 30102 ft | 530 kts | 82° |
| 2026-05-07 01:45 | 21.91385 | 115.67446 | 30463 ft | 528 kts | 76° |
| 2026-05-07 01:45 | 21.92199 | 115.71298 | 30873 ft | 526 kts | 75° |
| 2026-05-07 01:46 | 21.93029 | 115.75138 | 31286 ft | 525 kts | 75° |
| 2026-05-07 01:46 | 21.93848 | 115.78968 | 31684 ft | 524 kts | 75° |
| 2026-05-07 01:46 | 21.94651 | 115.82802 | 32078 ft | 524 kts | 75° |
| 2026-05-07 01:46 | 21.95427 | 115.86582 | 32468 ft | 523 kts | 75° |
| 2026-05-07 01:47 | 21.96205 | 115.90411 | 32870 ft | 522 kts | 75° |
| 2026-05-07 01:47 | 21.96976 | 115.94228 | 33263 ft | 522 kts | 75° |
| 2026-05-07 01:47 | 21.97748 | 115.98046 | 33657 ft | 521 kts | 75° |
| 2026-05-07 01:47 | 21.98520 | 116.01862 | 34029 ft | 521 kts | 75° |
| 2026-05-07 01:48 | 21.99292 | 116.05674 | 34344 ft | 520 kts | 75° |
| 2026-05-07 01:48 | 22.00219 | 116.09415 | 34551 ft | 515 kts | 64° |
| 2026-05-07 01:48 | 22.01960 | 116.12750 | 34699 ft | 509 kts | 47° |
| 2026-05-07 01:48 | 22.04466 | 116.15388 | 34904 ft | 501 kts | 32° |
| 2026-05-07 01:49 | 22.07462 | 116.17265 | 34947 ft | 496 kts | 19° |
| 2026-05-07 01:49 | 22.14042 | 116.18962 | 34975 ft | 477 kts | 355° |
| 2026-05-07 01:50 | 22.20613 | 116.18646 | 34995 ft | 476 kts | 353° |
| 2026-05-07 01:50 | 22.27250 | 116.18303 | 34994 ft | 479 kts | 354° |
| 2026-05-07 01:51 | 22.33921 | 116.18048 | 34997 ft | 480 kts | 354° |
| 2026-05-07 01:51 | 22.40608 | 116.17831 | 34993 ft | 481 kts | 354° |
| 2026-05-07 01:52 | 22.47299 | 116.17614 | 34997 ft | 480 kts | 354° |
| 2026-05-07 01:52 | 22.53942 | 116.17394 | 34995 ft | 480 kts | 354° |
| 2026-05-07 01:53 | 22.60611 | 116.17172 | 34998 ft | 479 kts | 354° |
| 2026-05-07 01:53 | 22.67270 | 116.17001 | 34988 ft | 479 kts | 359° |
| 2026-05-07 01:53 | 22.70580 | 116.17556 | 35000 ft | 485 kts | 12° |
| 2026-05-07 01:54 | 22.73774 | 116.18793 | 35004 ft | 491 kts | 21° |
| 2026-05-07 01:54 | 22.76750 | 116.20646 | 34993 ft | 497 kts | 32° |
| 2026-05-07 01:54 | 22.79492 | 116.22938 | 35008 ft | 499 kts | 34° |
| 2026-05-07 01:55 | 22.84917 | 116.27654 | 35011 ft | 500 kts | 34° |
| 2026-05-07 01:55 | 22.90416 | 116.32290 | 35003 ft | 500 kts | 33° |
| 2026-05-07 01:56 | 22.95920 | 116.36862 | 35010 ft | 501 kts | 33° |
| 2026-05-07 01:56 | 23.01475 | 116.41450 | 35010 ft | 502 kts | 33° |
| 2026-05-07 01:57 | 23.06105 | 116.45266 | 35006 ft | 502 kts | 33° |
| 2026-05-07 01:57 | 23.11671 | 116.49864 | 35007 ft | 502 kts | 33° |
| 2026-05-07 01:58 | 23.17231 | 116.54466 | 35004 ft | 502 kts | 33° |
| 2026-05-07 01:58 | 23.22792 | 116.59076 | 35009 ft | 502 kts | 33° |
| 2026-05-07 01:59 | 23.28349 | 116.63686 | 35015 ft | 501 kts | 33° |
| 2026-05-07 01:59 | 23.33854 | 116.68259 | 35016 ft | 501 kts | 33° |
| 2026-05-07 02:00 | 23.39397 | 116.72867 | 35012 ft | 501 kts | 33° |
| 2026-05-07 02:00 | 23.44851 | 116.77599 | 35018 ft | 503 kts | 39° |
| 2026-05-07 02:01 | 23.49762 | 116.83071 | 35016 ft | 505 kts | 43° |
| 2026-05-07 02:01 | 23.54589 | 116.88654 | 35011 ft | 505 kts | 43° |
| 2026-05-07 02:02 | 23.59442 | 116.94201 | 35014 ft | 505 kts | 43° |
| 2026-05-07 02:02 | 23.64286 | 116.99700 | 35010 ft | 506 kts | 42° |
| 2026-05-07 02:03 | 23.69162 | 117.05239 | 35012 ft | 506 kts | 43° |
| 2026-05-07 02:03 | 23.74044 | 117.10798 | 35011 ft | 507 kts | 43° |
| 2026-05-07 02:04 | 23.79049 | 117.16192 | 35005 ft | 504 kts | 38° |
| 2026-05-07 02:04 | 23.84296 | 117.21276 | 35009 ft | 504 kts | 37° |
| 2026-05-07 02:05 | 23.89562 | 117.26353 | 35008 ft | 503 kts | 38° |
| 2026-05-07 02:05 | 23.94762 | 117.31418 | 35024 ft | 504 kts | 38° |
| 2026-05-07 02:06 | 23.99992 | 117.36546 | 35011 ft | 505 kts | 38° |
| 2026-05-07 02:06 | 24.05229 | 117.41683 | 35011 ft | 506 kts | 38° |
| 2026-05-07 02:07 | 24.10484 | 117.46841 | 34999 ft | 507 kts | 38° |
| 2026-05-07 02:07 | 24.18021 | 117.55004 | 35003 ft | 510 kts | 44° |
| 2026-05-07 02:08 | 24.22770 | 117.60784 | 34998 ft | 509 kts | 45° |
| 2026-05-07 02:08 | 24.27516 | 117.66543 | 34998 ft | 508 kts | 44° |
| 2026-05-07 02:09 | 24.32276 | 117.72275 | 35003 ft | 508 kts | 44° |
| 2026-05-07 02:09 | 24.37011 | 117.77969 | 34995 ft | 508 kts | 44° |
| 2026-05-07 02:10 | 24.41775 | 117.83706 | 34992 ft | 508 kts | 44° |
| 2026-05-07 02:10 | 24.46532 | 117.89445 | 34996 ft | 508 kts | 45° |
| 2026-05-07 02:11 | 24.51285 | 117.95189 | 34996 ft | 508 kts | 45° |
| 2026-05-07 02:11 | 24.56012 | 118.00906 | 34998 ft | 508 kts | 45° |
| 2026-05-07 02:12 | 24.60855 | 118.06546 | 35000 ft | 507 kts | 43° |
| 2026-05-07 02:12 | 24.65782 | 118.12084 | 34998 ft | 507 kts | 43° |
| 2026-05-07 02:13 | 24.70681 | 118.17668 | 34994 ft | 507 kts | 43° |
| 2026-05-07 02:13 | 24.75552 | 118.23220 | 34996 ft | 507 kts | 43° |
| 2026-05-07 02:14 | 24.80448 | 118.28791 | 34991 ft | 506 kts | 43° |
| 2026-05-07 02:14 | 24.85349 | 118.34376 | 34991 ft | 506 kts | 43° |
| 2026-05-07 02:15 | 24.90243 | 118.39965 | 34993 ft | 506 kts | 43° |
| 2026-05-07 02:15 | 24.95102 | 118.45523 | 35004 ft | 506 kts | 43° |
| 2026-05-07 02:16 | 24.99992 | 118.51122 | 35004 ft | 506 kts | 43° |
| 2026-05-07 02:16 | 25.04871 | 118.56715 | 34998 ft | 506 kts | 43° |
| 2026-05-07 02:17 | 25.09759 | 118.62325 | 35004 ft | 506 kts | 43° |
| 2026-05-07 02:17 | 25.14553 | 118.68039 | 34995 ft | 507 kts | 44° |
| 2026-05-07 02:18 | 25.19272 | 118.73770 | 34991 ft | 507 kts | 44° |
| 2026-05-07 02:18 | 25.24031 | 118.79523 | 35005 ft | 507 kts | 44° |
| 2026-05-07 02:19 | 25.28798 | 118.85272 | 35007 ft | 507 kts | 44° |
| 2026-05-07 02:19 | 25.33567 | 118.91031 | 35024 ft | 508 kts | 44° |
| 2026-05-07 02:20 | 25.38383 | 118.96744 | 35009 ft | 507 kts | 43° |
| 2026-05-07 02:20 | 25.43250 | 119.02396 | 35004 ft | 507 kts | 43° |
| 2026-05-07 02:21 | 25.48113 | 119.08063 | 35006 ft | 507 kts | 43° |
| 2026-05-07 02:21 | 25.52958 | 119.13741 | 35004 ft | 507 kts | 43° |
| 2026-05-07 02:22 | 25.57777 | 119.19400 | 35005 ft | 507 kts | 42° |
| 2026-05-07 02:22 | 25.62626 | 119.25099 | 35002 ft | 507 kts | 43° |
| 2026-05-07 02:23 | 25.67461 | 119.30792 | 35005 ft | 507 kts | 42° |
| 2026-05-07 02:23 | 25.72477 | 119.36245 | 34989 ft | 500 kts | 32° |
| 2026-05-07 02:24 | 25.78417 | 119.40048 | 34999 ft | 489 kts | 17° |
| 2026-05-07 02:24 | 25.84809 | 119.42294 | 35003 ft | 484 kts | 11° |
| 2026-05-07 02:25 | 25.91291 | 119.44385 | 34998 ft | 485 kts | 11° |
| 2026-05-07 02:25 | 25.97780 | 119.46551 | 34998 ft | 487 kts | 12° |
| 2026-05-07 02:26 | 26.04266 | 119.48757 | 35002 ft | 487 kts | 12° |
| 2026-05-07 02:26 | 26.10703 | 119.50951 | 35001 ft | 487 kts | 12° |
| 2026-05-07 02:27 | 26.17193 | 119.53160 | 34999 ft | 487 kts | 12° |
| 2026-05-07 02:27 | 26.23531 | 119.55938 | 34996 ft | 494 kts | 21° |
| 2026-05-07 02:28 | 26.29458 | 119.59902 | 34998 ft | 498 kts | 27° |
| 2026-05-07 02:28 | 26.35280 | 119.64098 | 35006 ft | 498 kts | 27° |
| 2026-05-07 02:29 | 26.41131 | 119.68242 | 34995 ft | 498 kts | 27° |
| 2026-05-07 02:29 | 26.46983 | 119.72356 | 35008 ft | 497 kts | 27° |
| 2026-05-07 02:30 | 26.52815 | 119.76445 | 35012 ft | 499 kts | 27° |
| 2026-05-07 02:30 | 26.58706 | 119.80572 | 34998 ft | 499 kts | 27° |
| 2026-05-07 02:31 | 26.64591 | 119.84705 | 34999 ft | 498 kts | 27° |
| 2026-05-07 02:31 | 26.70467 | 119.88837 | 34998 ft | 498 kts | 27° |
| 2026-05-07 02:32 | 26.76293 | 119.92939 | 35011 ft | 496 kts | 27° |
| 2026-05-07 02:32 | 26.82136 | 119.97060 | 35003 ft | 496 kts | 27° |
| 2026-05-07 02:33 | 26.87978 | 120.01184 | 35013 ft | 497 kts | 27° |
| 2026-05-07 02:33 | 26.93831 | 120.05342 | 35006 ft | 498 kts | 27° |
| 2026-05-07 02:34 | 26.99692 | 120.09519 | 35000 ft | 499 kts | 27° |
| 2026-05-07 02:34 | 27.05513 | 120.13668 | 35006 ft | 500 kts | 27° |
| 2026-05-07 02:35 | 27.11390 | 120.17861 | 34998 ft | 501 kts | 26° |
| 2026-05-07 02:35 | 27.17287 | 120.22033 | 34986 ft | 501 kts | 26° |
| 2026-05-07 02:36 | 27.23195 | 120.26165 | 35008 ft | 500 kts | 26° |
| 2026-05-07 02:36 | 27.29096 | 120.30304 | 34999 ft | 499 kts | 26° |
| 2026-05-07 02:37 | 27.34983 | 120.34447 | 35009 ft | 499 kts | 26° |
| 2026-05-07 02:37 | 27.40864 | 120.38605 | 34991 ft | 499 kts | 26° |
| 2026-05-07 02:38 | 27.46694 | 120.42760 | 35001 ft | 499 kts | 26° |
| 2026-05-07 02:38 | 27.52560 | 120.46947 | 34996 ft | 500 kts | 26° |
| 2026-05-07 02:39 | 27.58433 | 120.51141 | 34994 ft | 500 kts | 26° |
| 2026-05-07 02:39 | 27.64324 | 120.55353 | 34993 ft | 501 kts | 27° |
| 2026-05-07 02:40 | 27.70215 | 120.59563 | 34996 ft | 500 kts | 25° |
| 2026-05-07 02:40 | 27.76491 | 120.62654 | 34993 ft | 487 kts | 10° |
| 2026-05-07 02:41 | 27.83040 | 120.63902 | 34996 ft | 476 kts | 358° |
| 2026-05-07 02:41 | 27.89655 | 120.64412 | 34993 ft | 477 kts | 358° |
| 2026-05-07 02:42 | 27.96279 | 120.64983 | 34992 ft | 478 kts | 359° |
| 2026-05-07 02:42 | 28.02922 | 120.65609 | 34995 ft | 479 kts | 359° |
| 2026-05-07 02:43 | 28.09566 | 120.66258 | 34981 ft | 479 kts | 359° |
| 2026-05-07 02:43 | 28.16217 | 120.66918 | 34984 ft | 480 kts | 359° |
| 2026-05-07 02:44 | 28.22880 | 120.67579 | 34983 ft | 481 kts | 359° |
| 2026-05-07 02:44 | 28.29547 | 120.68238 | 34982 ft | 481 kts | 359° |
| 2026-05-07 02:45 | 28.36219 | 120.68898 | 34993 ft | 480 kts | 359° |
| 2026-05-07 02:45 | 28.42829 | 120.69553 | 34991 ft | 480 kts | 359° |
| 2026-05-07 02:46 | 28.49482 | 120.70217 | 34994 ft | 479 kts | 359° |
| 2026-05-07 02:46 | 28.56132 | 120.70885 | 34997 ft | 480 kts | 359° |
| 2026-05-07 02:47 | 28.61666 | 120.71441 | 34983 ft | 480 kts | 359° |
| 2026-05-07 02:47 | 28.68327 | 120.72112 | 34980 ft | 481 kts | 358° |
| 2026-05-07 02:48 | 28.74993 | 120.72813 | 34988 ft | 481 kts | 359° |
| 2026-05-07 02:48 | 28.81658 | 120.73542 | 34977 ft | 481 kts | 359° |
| 2026-05-07 02:49 | 28.88329 | 120.74259 | 34967 ft | 480 kts | 358° |
| 2026-05-07 02:49 | 28.94980 | 120.74946 | 34976 ft | 479 kts | 358° |
| 2026-05-07 02:50 | 29.01617 | 120.75625 | 34979 ft | 479 kts | 358° |
| 2026-05-07 02:50 | 29.08250 | 120.76310 | 34970 ft | 479 kts | 358° |
| 2026-05-07 02:51 | 29.14875 | 120.76997 | 34965 ft | 478 kts | 358° |
| 2026-05-07 02:51 | 29.21502 | 120.77684 | 34972 ft | 478 kts | 358° |
| 2026-05-07 02:52 | 29.28104 | 120.78370 | 34970 ft | 479 kts | 357° |
| 2026-05-07 02:52 | 29.34760 | 120.79063 | 34975 ft | 480 kts | 357° |
| 2026-05-07 02:53 | 29.41421 | 120.79758 | 34955 ft | 481 kts | 357° |
| 2026-05-07 02:53 | 29.48090 | 120.80454 | 34960 ft | 481 kts | 357° |
| 2026-05-07 02:54 | 29.54757 | 120.81168 | 34950 ft | 481 kts | 0° |
| 2026-05-07 02:54 | 29.57993 | 120.82164 | 34947 ft | 500 kts | 17° |
| 2026-05-07 02:54 | 29.61024 | 120.84251 | 34960 ft | 517 kts | 32° |
| 2026-05-07 02:55 | 29.63541 | 120.87277 | 34948 ft | 532 kts | 49° |
| 2026-05-07 02:55 | 29.65586 | 120.90839 | 34963 ft | 535 kts | 52° |
| 2026-05-07 02:55 | 29.67573 | 120.94487 | 34568 ft | 539 kts | 53° |
| 2026-05-07 02:55 | 29.69542 | 120.98134 | 34148 ft | 533 kts | 53° |
| 2026-05-07 02:56 | 29.71525 | 121.01743 | 33684 ft | 535 kts | 53° |
| 2026-05-07 02:56 | 29.73552 | 121.05353 | 33369 ft | 538 kts | 52° |
| 2026-05-07 02:56 | 29.75609 | 121.08965 | 33134 ft | 539 kts | 52° |
| 2026-05-07 02:56 | 29.77671 | 121.12565 | 32941 ft | 538 kts | 52° |
| 2026-05-07 02:57 | 29.79734 | 121.16161 | 32723 ft | 538 kts | 53° |
| 2026-05-07 02:57 | 29.81787 | 121.19754 | 32502 ft | 538 kts | 53° |
| 2026-05-07 02:57 | 29.83814 | 121.23312 | 32255 ft | 538 kts | 53° |
| 2026-05-07 02:57 | 29.85868 | 121.26926 | 31974 ft | 539 kts | 53° |
| 2026-05-07 02:58 | 29.87926 | 121.30526 | 31663 ft | 537 kts | 52° |
| 2026-05-07 02:58 | 29.90336 | 121.33791 | 31234 ft | 534 kts | 38° |
| 2026-05-07 02:58 | 29.93355 | 121.36198 | 30835 ft | 522 kts | 22° |
| 2026-05-07 02:58 | 29.96609 | 121.38086 | 30364 ft | 526 kts | 22° |
| 2026-05-07 02:59 | 29.99880 | 121.39991 | 30015 ft | 528 kts | 22° |
| 2026-05-07 02:59 | 30.03134 | 121.41942 | 29810 ft | 525 kts | 23° |
| 2026-05-07 02:59 | 30.06352 | 121.43923 | 29675 ft | 522 kts | 24° |
| 2026-05-07 02:59 | 30.09532 | 121.45910 | 29506 ft | 517 kts | 24° |
| 2026-05-07 03:00 | 30.12648 | 121.47873 | 28928 ft | 503 kts | 24° |
| 2026-05-07 03:00 | 30.15699 | 121.49794 | 27916 ft | 497 kts | 24° |
| 2026-05-07 03:00 | 30.18727 | 121.51694 | 26853 ft | 493 kts | 24° |
| 2026-05-07 03:00 | 30.21727 | 121.53572 | 25798 ft | 489 kts | 24° |
| 2026-05-07 03:01 | 30.24713 | 121.55443 | 24785 ft | 484 kts | 24° |
| 2026-05-07 03:01 | 30.27617 | 121.57285 | 23864 ft | 478 kts | 25° |
| 2026-05-07 03:01 | 30.30505 | 121.59160 | 22888 ft | 472 kts | 25° |
| 2026-05-07 03:01 | 30.33350 | 121.61014 | 21887 ft | 465 kts | 25° |
| 2026-05-07 03:02 | 30.36156 | 121.62837 | 20944 ft | 458 kts | 25° |
| 2026-05-07 03:02 | 30.38910 | 121.64666 | 20025 ft | 453 kts | 27° |
| 2026-05-07 03:02 | 30.41594 | 121.66547 | 19136 ft | 448 kts | 28° |
| 2026-05-07 03:02 | 30.44206 | 121.68416 | 18761 ft | 431 kts | 28° |
| 2026-05-07 03:03 | 30.46660 | 121.70172 | 18645 ft | 410 kts | 28° |
| 2026-05-07 03:03 | 30.49066 | 121.71878 | 18596 ft | 404 kts | 28° |
| 2026-05-07 03:03 | 30.51464 | 121.73564 | 18590 ft | 403 kts | 28° |
| 2026-05-07 03:03 | 30.53861 | 121.75248 | 18566 ft | 402 kts | 28° |
| 2026-05-07 03:04 | 30.56253 | 121.76924 | 18562 ft | 400 kts | 26° |
| 2026-05-07 03:04 | 30.58761 | 121.78153 | 18485 ft | 381 kts | 9° |
| 2026-05-07 03:04 | 30.61287 | 121.78819 | 18398 ft | 363 kts | 7° |
| 2026-05-07 03:04 | 30.63709 | 121.79425 | 18262 ft | 350 kts | 7° |
| 2026-05-07 03:05 | 30.66064 | 121.80020 | 17778 ft | 343 kts | 7° |
| 2026-05-07 03:05 | 30.68386 | 121.80618 | 17010 ft | 340 kts | 8° |
| 2026-05-07 03:05 | 30.70680 | 121.81222 | 16278 ft | 334 kts | 8° |
| 2026-05-07 03:05 | 30.72925 | 121.81823 | 15558 ft | 328 kts | 8° |
| 2026-05-07 03:06 | 30.75128 | 121.82418 | 14853 ft | 322 kts | 9° |
| 2026-05-07 03:06 | 30.77294 | 121.83006 | 14161 ft | 317 kts | 9° |
| 2026-05-07 03:06 | 30.79398 | 121.83578 | 13457 ft | 312 kts | 9° |
| 2026-05-07 03:06 | 30.81497 | 121.84149 | 12694 ft | 307 kts | 9° |
| 2026-05-07 03:07 | 30.83561 | 121.84712 | 11965 ft | 303 kts | 9° |
| 2026-05-07 03:07 | 30.85599 | 121.85267 | 11241 ft | 299 kts | 10° |
| 2026-05-07 03:07 | 30.87609 | 121.85815 | 10543 ft | 295 kts | 9° |
| 2026-05-07 03:07 | 30.89601 | 121.86355 | 9886 ft | 293 kts | 10° |
| 2026-05-07 03:08 | 30.91577 | 121.86897 | 9099 ft | 290 kts | 11° |
| 2026-05-07 03:08 | 30.93508 | 121.87512 | 8379 ft | 287 kts | 20° |
| 2026-05-07 03:08 | 30.95274 | 121.88568 | 7678 ft | 285 kts | 29° |
| 2026-05-07 03:08 | 30.96954 | 121.89769 | 7014 ft | 280 kts | 30° |
| 2026-05-07 03:09 | 30.98561 | 121.90938 | 6738 ft | 267 kts | 30° |
| 2026-05-07 03:09 | 31.00128 | 121.92057 | 6556 ft | 262 kts | 29° |
| 2026-05-07 03:09 | 31.01696 | 121.93154 | 6331 ft | 265 kts | 29° |
| 2026-05-07 03:09 | 31.03293 | 121.94256 | 6062 ft | 268 kts | 29° |
| 2026-05-07 03:10 | 31.04884 | 121.95349 | 5966 ft | 262 kts | 28° |
| 2026-05-07 03:10 | 31.06453 | 121.96426 | 5935 ft | 262 kts | 28° |
| 2026-05-07 03:10 | 31.07955 | 121.97588 | 5899 ft | 257 kts | 44° |
| 2026-05-07 03:10 | 31.08944 | 121.99304 | 5898 ft | 255 kts | 61° |
| 2026-05-07 03:11 | 31.09793 | 122.01147 | 5920 ft | 261 kts | 60° |
| 2026-05-07 03:11 | 31.10674 | 122.03017 | 5928 ft | 264 kts | 60° |
| 2026-05-07 03:11 | 31.11565 | 122.04904 | 5936 ft | 265 kts | 59° |
| 2026-05-07 03:11 | 31.12445 | 122.06765 | 5941 ft | 265 kts | 59° |
| 2026-05-07 03:12 | 31.13339 | 122.08649 | 5940 ft | 265 kts | 59° |
| 2026-05-07 03:12 | 31.14225 | 122.10521 | 5933 ft | 262 kts | 60° |
| 2026-05-07 03:12 | 31.15106 | 122.12366 | 5919 ft | 257 kts | 57° |
| 2026-05-07 03:12 | 31.16248 | 122.13936 | 5925 ft | 254 kts | 40° |
| 2026-05-07 03:13 | 31.17597 | 122.15293 | 5939 ft | 258 kts | 38° |
| 2026-05-07 03:13 | 31.18977 | 122.16658 | 5946 ft | 260 kts | 38° |
| 2026-05-07 03:13 | 31.20343 | 122.18042 | 5947 ft | 259 kts | 39° |
| 2026-05-07 03:13 | 31.21691 | 122.19429 | 5948 ft | 258 kts | 39° |
| 2026-05-07 03:14 | 31.23030 | 122.20816 | 5941 ft | 257 kts | 39° |
| 2026-05-07 03:14 | 31.24463 | 122.22010 | 5930 ft | 251 kts | 24° |
| 2026-05-07 03:14 | 31.27648 | 122.23681 | 5955 ft | 252 kts | 21° |
| 2026-05-07 03:15 | 31.29253 | 122.24526 | 5958 ft | 253 kts | 22° |
| 2026-05-07 03:15 | 31.30858 | 122.25389 | 5970 ft | 255 kts | 23° |
| 2026-05-07 03:15 | 31.32449 | 122.26254 | 5964 ft | 256 kts | 22° |
| 2026-05-07 03:15 | 31.34082 | 122.27063 | 5950 ft | 252 kts | 12° |
| 2026-05-07 03:16 | 31.35792 | 122.27427 | 5961 ft | 250 kts | 5° |
| 2026-05-07 03:16 | 31.37452 | 122.27673 | 5962 ft | 250 kts | 5° |
| 2026-05-07 03:16 | 31.39183 | 122.27942 | 5968 ft | 251 kts | 5° |
| 2026-05-07 03:16 | 31.40916 | 122.28224 | 5974 ft | 251 kts | 5° |
| 2026-05-07 03:17 | 31.42622 | 122.28115 | 5959 ft | 244 kts | 338° |
| 2026-05-07 03:17 | 31.44013 | 122.27042 | 5967 ft | 241 kts | 310° |
| 2026-05-07 03:17 | 31.44851 | 122.25351 | 5975 ft | 241 kts | 288° |
| 2026-05-07 03:17 | 31.45072 | 122.23419 | 5975 ft | 241 kts | 271° |
| 2026-05-07 03:18 | 31.45070 | 122.21433 | 5980 ft | 247 kts | 271° |
| 2026-05-07 03:18 | 31.45061 | 122.19403 | 5976 ft | 252 kts | 271° |
| 2026-05-07 03:18 | 31.45051 | 122.17342 | 5969 ft | 252 kts | 271° |
| 2026-05-07 03:18 | 31.45042 | 122.15303 | 5954 ft | 249 kts | 271° |
| 2026-05-07 03:19 | 31.45034 | 122.13284 | 5960 ft | 247 kts | 271° |
| 2026-05-07 03:19 | 31.45029 | 122.11279 | 5912 ft | 246 kts | 271° |
| 2026-05-07 03:19 | 31.45026 | 122.09305 | 5802 ft | 246 kts | 271° |
| 2026-05-07 03:19 | 31.45024 | 122.07297 | 5685 ft | 247 kts | 271° |
| 2026-05-07 03:20 | 31.45022 | 122.05288 | 5568 ft | 247 kts | 271° |
| 2026-05-07 03:20 | 31.45021 | 122.03284 | 5462 ft | 246 kts | 271° |
| 2026-05-07 03:20 | 31.45019 | 122.01282 | 5338 ft | 245 kts | 271° |
| 2026-05-07 03:20 | 31.45018 | 121.99289 | 5217 ft | 244 kts | 271° |
| 2026-05-07 03:21 | 31.45017 | 121.97301 | 5097 ft | 244 kts | 271° |
| 2026-05-07 03:21 | 31.45015 | 121.95314 | 4981 ft | 244 kts | 271° |
| 2026-05-07 03:21 | 31.45013 | 121.93328 | 4861 ft | 244 kts | 271° |
| 2026-05-07 03:21 | 31.45011 | 121.91341 | 4736 ft | 244 kts | 271° |
| 2026-05-07 03:22 | 31.45009 | 121.89357 | 4613 ft | 243 kts | 271° |
| 2026-05-07 03:22 | 31.45007 | 121.87376 | 4506 ft | 243 kts | 271° |
| 2026-05-07 03:22 | 31.45009 | 121.85403 | 4446 ft | 241 kts | 271° |
| 2026-05-07 03:22 | 31.44988 | 121.83448 | 4352 ft | 236 kts | 266° |
| 2026-05-07 03:23 | 31.44721 | 121.81590 | 4213 ft | 233 kts | 258° |
| 2026-05-07 03:23 | 31.44336 | 121.79747 | 4022 ft | 228 kts | 257° |
| 2026-05-07 03:23 | 31.43970 | 121.77965 | 3900 ft | 226 kts | 258° |
| 2026-05-07 03:23 | 31.43616 | 121.76167 | 3802 ft | 226 kts | 258° |
| 2026-05-07 03:24 | 31.43271 | 121.74377 | 3702 ft | 225 kts | 258° |
| 2026-05-07 03:24 | 31.42930 | 121.72591 | 3580 ft | 224 kts | 258° |
| 2026-05-07 03:24 | 31.42331 | 121.70952 | 3453 ft | 220 kts | 228° |
| 2026-05-07 03:24 | 31.41075 | 121.70034 | 3367 ft | 213 kts | 193° |
| 2026-05-07 03:25 | 31.39657 | 121.70081 | 3245 ft | 206 kts | 172° |
| 2026-05-07 03:25 | 31.38208 | 121.70405 | 3220 ft | 214 kts | 169° |
| 2026-05-07 03:25 | 31.36758 | 121.70819 | 3178 ft | 212 kts | 167° |
| 2026-05-07 03:25 | 31.35365 | 121.71278 | 3057 ft | 202 kts | 164° |
| 2026-05-07 03:26 | 31.34063 | 121.71780 | 3009 ft | 193 kts | 164° |
| 2026-05-07 03:26 | 31.32800 | 121.72266 | 3023 ft | 192 kts | 164° |
| 2026-05-07 03:26 | 31.31525 | 121.72754 | 3015 ft | 192 kts | 164° |
| 2026-05-07 03:26 | 31.30263 | 121.73236 | 2813 ft | 190 kts | 164° |
| 2026-05-07 03:27 | 31.29053 | 121.73696 | 2567 ft | 182 kts | 164° |
| 2026-05-07 03:27 | 31.27850 | 121.74152 | 2373 ft | 183 kts | 164° |
| 2026-05-07 03:27 | 31.26670 | 121.74601 | 2102 ft | 173 kts | 165° |
| 2026-05-07 03:27 | 31.25563 | 121.75023 | 1909 ft | 162 kts | 164° |
| 2026-05-07 03:28 | 31.24515 | 121.75446 | 1769 ft | 160 kts | 159° |
| 2026-05-07 03:28 | 31.23454 | 121.75841 | 1485 ft | 151 kts | 169° |
| 2026-05-07 03:28 | 31.22435 | 121.76193 | 1267 ft | 152 kts | 164° |
| 2026-05-07 03:28 | 31.21411 | 121.76587 | 1095 ft | 156 kts | 164° |
| 2026-05-07 03:29 | 31.20394 | 121.77024 | 843 ft | 155 kts | 165° |
| 2026-05-07 03:29 | 31.19382 | 121.77400 | 586 ft | 149 kts | 165° |
| 2026-05-07 03:29 | 31.18414 | 121.77739 | 421 ft | 146 kts | 164° |
| 2026-05-07 03:29 | 31.17429 | 121.78116 | 317 ft | 150 kts | 165° |
| 2026-05-07 03:30 | 31.16420 | 121.78492 | 105 ft | 152 kts | 165° |
| 2026-05-07 03:30 | 31.15439 | 121.78852 | 27 ft | 135 kts | 162° |
| 2026-05-07 03:30 | 31.14719 | 121.79125 | 26 ft | 82 kts | 161° |
| 2026-05-07 03:30 | 31.14254 | 121.79300 | 27 ft | 66 kts | 163° |
| 2026-05-07 03:31 | 31.13925 | 121.79424 | 28 ft | 30 kts | 161° |
| 2026-05-07 03:31 | 31.13854 | 121.79453 | 28 ft | 10 kts | 162° |
| 2026-05-07 03:31 | 31.13774 | 121.79481 | 28 ft | 12 kts | 163° |
| 2026-05-07 03:31 | 31.13693 | 121.79511 | 26 ft | 12 kts | 162° |
| 2026-05-07 03:32 | 31.13669 | 121.79508 | 27 ft | 7 kts | 206° |
| 2026-05-07 03:32 | 31.13645 | 121.79453 | 27 ft | 8 kts | 248° |
| 2026-05-07 03:32 | 31.13627 | 121.79392 | 28 ft | 8 kts | 253° |
| 2026-05-07 03:32 | 31.13611 | 121.79330 | 27 ft | 8 kts | 251° |
| 2026-05-07 03:33 | 31.13585 | 121.79269 | 27 ft | 9 kts | 219° |
| 2026-05-07 03:33 | 31.13518 | 121.79278 | 28 ft | 11 kts | 161° |
| 2026-05-07 03:33 | 31.13437 | 121.79310 | 31 ft | 14 kts | 161° |
| 2026-05-07 03:33 | 31.13342 | 121.79347 | 28 ft | 12 kts | 161° |
| 2026-05-07 03:34 | 31.13306 | 121.79342 | 26 ft | 5 kts | 229° |
| 2026-05-07 03:34 | 31.13291 | 121.79310 | 31 ft | 0 kts | 246° |
| 2026-05-07 03:35 | 31.13287 | 121.79298 | 30 ft | 3 kts | 248° |
| 2026-05-07 03:35 | 31.13273 | 121.79254 | 26 ft | 7 kts | 250° |
| 2026-05-07 03:35 | 31.13259 | 121.79203 | 27 ft | 7 kts | 252° |
| 2026-05-07 03:36 | 31.13244 | 121.79149 | 28 ft | 7 kts | 252° |
| 2026-05-07 03:36 | 31.13222 | 121.79069 | 32 ft | 9 kts | 251° |
| 2026-05-07 03:36 | 31.13207 | 121.79018 | 31 ft | 10 kts | 251° |
| 2026-05-07 03:36 | 31.13183 | 121.78937 | 28 ft | 11 kts | 252° |
| 2026-05-07 03:37 | 31.13213 | 121.78868 | 29 ft | 11 kts | 334° |
| 2026-05-07 03:37 | 31.13284 | 121.78841 | 27 ft | 11 kts | 342° |
| 2026-05-07 03:37 | 31.13355 | 121.78814 | 27 ft | 11 kts | 342° |
| 2026-05-07 03:37 | 31.13426 | 121.78787 | 27 ft | 11 kts | 341° |
| 2026-05-07 03:38 | 31.13497 | 121.78760 | 27 ft | 11 kts | 342° |
| 2026-05-07 03:38 | 31.13568 | 121.78733 | 27 ft | 11 kts | 342° |
| 2026-05-07 03:38 | 31.13639 | 121.78707 | 27 ft | 11 kts | 343° |
| 2026-05-07 03:38 | 31.13664 | 121.78635 | 25 ft | 11 kts | 261° |
| 2026-05-07 03:39 | 31.13652 | 121.78584 | 29 ft | 1 kts | 251° |
| 2026-05-07 03:39 | 31.13650 | 121.78575 | 27 ft | 1 kts | 252° |
| 2026-05-07 03:39 | 31.13649 | 121.78574 | 30 ft | 0 kts | 252° |